Aeroporto :
LOGIN :

Iscrizione | Disclaimer

   EN    FR    IT 

 










Sommario :    VFR   VFR Marginale   IFR   IFR Intensivo   IFR Molto Intensivo
Visibilità : 
Base nubi : 
>= 8 km
>= 3000ft
5 / 8 km
1000 / 3000 ft
1500m / 5 km
500 / 1000 ft
800 / 1500m
200 / 500 ft
< 800m
< 200 ft
Simboli :   Temporali  Nebbia  Neve Forte  Precipitazioni Forti  Vento > 20 kt
SIGMETs :   Varie  Temporali  Ghiacco  Turbolenza  Onda orograficha  Ceneri Vulcaniche







- Altitudine del aeroporto : 266 ft
- Codice IATA : NCL
- Carte del aeroporto


EGNT - Newcastle

ULTIMO METAR :
  • 190620Z 25005KT 190V280 9000 -RA BKN027 11/11 Q1008

METARs OBSOLETI :
  • 190550Z 28003KT 9999 RA BKN027 11/10 Q1008
  • 190520Z 26002KT 9999 RA BKN027 10/10 Q1008
  • 190450Z 26003KT 9999 RA BKN027 10/10 Q1008
  • 190420Z 27003KT 9999 -RA BKN031 10/10 Q1008
  • 190350Z 29005KT 9999 -RA BKN031 11/09 Q1009

TAF TAF EGNT
Valido dal 19 a 06 ore il 20 a 06 ore UTC


190502Z 1906/2006 30005KT 9999 SCT035
PROB40
TEMPO 1906/1912 7000 RA BKN014
PROB30
TEMPO 1912/1917 8000 SHRA
PROB30
TEMPO 2000/2006 8000 SHRA
ATIS : +44 191 214 3400
Nessun NOTAM noto per questo aeroporto.



MetMap, La meteo Aeronautica in un colpo d'occhio ! - Copyright ORBIFLY Dicembre 2007 - Disclaimer

ORBIFLY MET'MAP TEAM :

Programmazione e sviluppo : Alexandra Zaïnal
Concezione e sviluppo : Baudouin d'Aumeries
Co-Programmazione e sviluppo : Marc-Olivier Méhu
Supporto tecnico e logistico : Manuel Goepfert
Aiuto per la traduzione : Arnaldo La Scala

Contatto : metmap@orbifly.com




FONTI E CREDITI :

   NOAA